Terminal Aerodrome Forecast
Issued by NWS Memphis, TN

Home | Current Version | Previous Version | Text Only | Print | Product List | Glossary On
Versions: 1 2 3 4 5 6 7 8 9 10 11 12 13 14
000
FTUS44 KMEG 261726
TAFMKL
TAF
KMKL 261726Z 2618/2718 21003KT P6SM SCT035 SCT250
     FM262000 18004KT P6SM VCTS SCT060CB BKN120
     FM270100 00000KT P6SM FEW150 SCT250
     FM271000 VRB01KT 4SM BR VCTS BKN040CB BKN250
     FM271500 VRB03KT P6SM VCTS BKN040CB BKN250=

USA.gov is the U.S. government's official web portal to all federal, state and local government web resources and services.